Time;durP1;ratioP1;P1;durP2;ratioP2;P2;SDS_P1;SDS_P2;PMS_P1;PMS_P2;Temp;Humidity;BMP_temperature;BMP_pressure;BME280_temperature;BME280_humidity;BME280_pressure;Samples;Min_cycle;Max_cycle;Signal;HPM_P1;HPM_P2
2022/01/15 00:01:12;;;;;;;19.42;11.25;;;;;;;2.82;100.00;101028.56;5075418;28;20455;-71
2022/01/15 00:03:40;;;;;;;21.30;11.88;;;;;;;2.81;100.00;101032.09;5075410;28;20441;-70
2022/01/15 00:06:10;;;;;;;14.43;8.85;;;;;;;2.85;100.00;101028.50;5075312;28;20500;-71
2022/01/15 00:08:38;;;;;;;21.60;12.38;;;;;;;2.84;100.00;101034.66;5075620;28;20044;-71
2022/01/15 00:11:07;;;;;;;23.58;13.13;;;;;;;2.80;100.00;101052.28;5074928;28;20524;-71
2022/01/15 00:13:35;;;;;;;15.88;7.75;;;;;;;2.82;100.00;101039.09;5075551;28;20048;-70
2022/01/15 00:16:07;;;;;;;22.77;12.98;;;;;;;2.74;100.00;101040.97;5075122;28;20049;-72
2022/01/15 00:18:48;;;;;;;26.37;13.40;;;;;;;2.81;100.00;101042.63;5075243;28;20044;-71
2022/01/15 00:21:18;;;;;;;21.90;12.10;;;;;;;2.76;100.00;101047.94;5074783;28;20500;-71
2022/01/15 00:23:46;;;;;;;21.48;11.68;;;;;;;2.72;100.00;101061.22;5075377;28;20040;-71
2022/01/15 00:26:14;;;;;;;19.50;11.52;;;;;;;2.73;100.00;101052.41;5074882;28;20465;-71
2022/01/15 00:28:42;;;;;;;19.63;10.50;;;;;;;2.74;100.00;101056.78;5075046;28;20075;-71
2022/01/15 00:31:10;;;;;;;21.60;11.15;;;;;;;2.72;100.00;101054.16;5074703;28;20043;-69
2022/01/15 00:33:41;;;;;;;17.42;10.00;;;;;;;2.72;100.00;101050.66;5075072;28;20067;-69
2022/01/15 00:36:09;;;;;;;20.40;9.95;;;;;;;2.67;100.00;101048.09;5074660;28;20127;-69
2022/01/15 00:38:45;;;;;;;24.27;12.90;;;;;;;2.65;100.00;101056.91;5075131;28;20485;-70
2022/01/15 00:41:16;;;;;;;18.23;10.35;;;;;;;2.71;100.00;101073.50;5074797;28;20049;-69
2022/01/15 00:43:44;;;;;;;19.13;11.38;;;;;;;2.67;100.00;101077.06;5073682;28;20045;-70
2022/01/15 00:46:13;;;;;;;19.58;10.02;;;;;;;2.69;100.00;101070.00;5074565;28;20040;-69
2022/01/15 00:48:41;;;;;;;23.20;12.30;;;;;;;2.65;100.00;101078.84;5074888;28;20078;-70
2022/01/15 00:51:09;;;;;;;19.65;11.35;;;;;;;2.65;100.00;101091.16;5074149;28;20052;-69
2022/01/15 00:53:41;;;;;;;24.05;13.02;;;;;;;2.63;100.00;101096.47;5074823;28;20051;-69
2022/01/15 00:56:10;;;;;;;18.63;9.52;;;;;;;2.64;100.00;101086.78;5056528;28;20148;-70
2022/01/15 00:58:38;;;;;;;20.38;11.68;;;;;;;2.57;100.00;101080.72;5074460;28;20045;-69
2022/01/15 01:01:06;;;;;;;19.83;12.10;;;;;;;2.54;100.00;101081.66;5074192;28;20052;-69
2022/01/15 01:03:35;;;;;;;20.95;11.73;;;;;;;2.60;100.00;101096.47;5074629;28;20097;-72
2022/01/15 01:06:03;;;;;;;20.65;11.73;;;;;;;2.57;100.00;101091.25;5074164;28;20075;-71
2022/01/15 01:08:31;;;;;;;19.70;10.25;;;;;;;2.62;100.00;101104.38;5056706;28;20052;-73
2022/01/15 01:11:10;;;;;;;22.55;11.75;;;;;;;2.58;100.00;101095.63;5074092;28;20052;-73
2022/01/15 01:20:01;;;;;;;18.88;10.65;;;;;;;2.60;100.00;101096.47;5074503;28;20044;-71
2022/01/15 01:24:57;;;;;;;17.80;9.13;;;;;;;2.49;100.00;101106.28;5073996;28;20041;-74
2022/01/15 01:27:39;;;;;;;23.02;11.95;;;;;;;2.50;100.00;101116.81;5074026;28;20032;-71
2022/01/15 01:30:14;;;;;;;19.67;11.10;;;;;;;2.48;100.00;101118.59;5055528;28;20049;-71
2022/01/15 01:32:52;;;;;;;21.27;11.38;;;;;;;2.45;100.00;101136.22;5074148;28;20127;-72
2022/01/15 01:35:29;;;;;;;15.77;8.65;;;;;;;2.44;100.00;101130.06;5073243;28;20052;-72
2022/01/15 01:38:06;;;;;;;17.60;8.50;;;;;;;2.45;100.00;101128.31;5073888;28;20431;-76
2022/01/15 01:40:39;;;;;;;20.55;10.88;;;;;;;2.40;100.00;101122.22;5073625;28;20072;-72
2022/01/15 01:46:09;;;;;;;18.00;10.07;;;;;;;2.43;100.00;101116.94;5073862;28;20033;-72
2022/01/15 01:48:38;;;;;;;19.23;11.82;;;;;;;2.42;100.00;101131.00;5073562;28;20155;-73
2022/01/15 01:51:07;;;;;;;13.38;6.93;;;;;;;2.37;100.00;101120.50;5073357;28;20044;-72
2022/01/15 01:53:36;;;;;;;16.95;9.88;;;;;;;2.38;100.00;101131.91;5073625;28;20078;-73
2022/01/15 01:56:05;;;;;;;21.45;11.25;;;;;;;2.37;100.00;101124.91;5072592;28;20053;-72
2022/01/15 01:58:35;;;;;;;20.23;11.75;;;;;;;2.38;100.00;101124.00;5073271;28;20045;-72
2022/01/15 02:01:04;;;;;;;16.83;10.02;;;;;;;2.38;100.00;101132.78;5073180;28;20426;-74
2022/01/15 02:03:32;;;;;;;18.75;9.98;;;;;;;2.45;100.00;101125.66;5073418;28;20051;-73
2022/01/15 02:06:00;;;;;;;16.90;9.40;;;;;;;2.41;100.00;101127.44;5073141;28;20444;-74
2022/01/15 02:08:30;;;;;;;19.98;11.75;;;;;;;2.40;100.00;101136.25;5073615;28;20048;-73
2022/01/15 02:10:58;;;;;;;17.95;9.85;;;;;;;2.42;100.00;101131.00;5073082;28;20066;-72
2022/01/15 02:13:26;;;;;;;18.05;9.85;;;;;;;2.40;100.00;101125.72;5073062;28;20045;-71
2022/01/15 02:15:58;;;;;;;18.25;10.82;;;;;;;2.36;100.00;101123.16;5073004;28;20489;-73
2022/01/15 02:18:27;;;;;;;18.55;8.93;;;;;;;2.35;100.00;101118.78;5073529;28;20048;-73
2022/01/15 02:23:50;;;;;;;20.60;10.95;;;;;;;2.36;100.00;101123.16;5072331;28;20440;-72
2022/01/15 02:26:20;;;;;;;19.43;11.10;;;;;;;2.25;100.00;101120.66;5073009;28;20041;-74
2022/01/15 02:28:53;;;;;;;17.67;9.07;;;;;;;2.24;100.00;101118.91;5073114;28;20063;-73
2022/01/15 02:31:23;;;;;;;20.48;11.90;;;;;;;2.23;100.00;101122.44;5072759;28;20062;-73
2022/01/15 02:33:56;;;;;;;;;;;;;;;2.27;100.00;101125.00;5073575;28;20102;-73
2022/01/15 02:36:29;;;;;;;18.73;11.30;;;;;;;2.19;100.00;101116.31;5072584;28;19920;-72
2022/01/15 02:38:58;;;;;;;18.88;11.55;;;;;;;2.15;100.00;101113.75;5073117;28;20048;-72
2022/01/15 02:41:29;;;;;;;22.05;12.25;;;;;;;2.09;100.00;101109.44;5072756;28;20037;-73
2022/01/15 02:44:00;;;;;;;21.08;12.05;;;;;;;2.16;100.00;101107.63;5072816;28;20044;-73
2022/01/15 02:48:00;;;;;;;24.67;13.32;;;;;;;2.18;100.00;101105.81;5072770;28;20050;-73
2022/01/15 02:49:25;;;;;;;21.13;12.48;;;;;;;2.16;100.00;101104.97;5072466;28;20106;-72
2022/01/15 02:51:55;;;;;;;22.90;12.65;;;;;;;2.07;100.00;101111.22;5073306;28;20044;-73
2022/01/15 02:54:23;;;;;;;20.27;12.50;;;;;;;2.14;100.00;101114.66;5072616;28;20047;-73
2022/01/15 02:56:52;;;;;;;22.60;12.50;;;;;;;2.11;100.00;101112.03;5054584;28;20052;-73
2022/01/15 02:59:21;;;;;;;20.27;11.65;;;;;;;2.18;100.00;101119.84;5072574;28;20132;-74
2022/01/15 03:01:50;;;;;;;21.75;11.15;;;;;;;2.17;100.00;101107.59;5073130;28;20052;-73
2022/01/15 03:04:18;;;;;;;17.50;8.88;;;;;;;2.16;100.00;101111.09;5072178;28;20493;-73
2022/01/15 03:06:47;;;;;;;21.65;12.70;;;;;;;2.05;100.00;101105.09;5073730;28;20456;-74
2022/01/15 03:09:16;;;;;;;22.25;11.93;;;;;;;2.09;100.00;101109.44;5076420;28;20044;-74
2022/01/15 03:11:47;;;;;;;20.75;12.13;;;;;;;1.99;100.00;101115.69;5076422;28;20551;-75
2022/01/15 03:14:19;;;;;;;24.15;12.10;;;;;;;2.00;100.00;101130.59;5076386;28;20056;-75
2022/01/15 03:16:48;;;;;;;21.92;13.27;;;;;;;2.07;100.00;101132.28;5076506;28;20043;-74
2022/01/15 03:19:36;;;;;;;20.67;12.55;;;;;;;2.07;100.00;101137.53;5076802;28;20051;-74
2022/01/15 03:22:05;;;;;;;18.17;11.05;;;;;;;2.10;100.00;101134.00;5058730;28;20052;-74
2022/01/15 03:24:34;;;;;;;23.90;13.32;;;;;;;2.05;100.00;101141.09;5076441;28;20049;-72
2022/01/15 03:27:04;;;;;;;20.52;11.85;;;;;;;1.99;100.00;101128.84;5058182;28;20045;-72
2022/01/15 03:29:32;;;;;;;21.88;12.45;;;;;;;1.96;100.00;101137.66;5076155;28;20079;-72
2022/01/15 03:32:00;;;;;;;22.05;12.57;;;;;;;1.95;100.00;101138.56;5075928;28;20116;-72
2022/01/15 03:34:28;;;;;;;20.92;12.60;;;;;;;1.92;100.00;101137.69;5075656;28;20057;-73
2022/01/15 03:36:57;;;;;;;21.63;12.68;;;;;;;1.87;100.00;101144.78;5076294;28;20136;-73
2022/01/15 03:39:25;;;;;;;21.77;12.32;;;;;;;1.84;100.00;101144.81;5075752;28;20048;-74
2022/01/15 03:41:56;;;;;;;20.77;11.70;;;;;;;1.84;100.00;101136.94;5079917;28;20044;-72
2022/01/15 03:44:24;;;;;;;22.27;12.73;;;;;;;1.83;100.00;101138.66;5057477;28;20098;-73
2022/01/15 03:46:52;;;;;;;24.05;13.32;;;;;;;1.86;100.00;101143.03;5075994;28;20041;-72
2022/01/15 03:49:21;;;;;;;22.45;12.75;;;;;;;1.74;100.00;101146.66;5075418;28;20048;-75
2022/01/15 03:51:50;;;;;;;19.90;11.55;;;;;;;1.78;100.00;101144.88;5076288;28;20389;-72
2022/01/15 03:54:18;;;;;;;22.85;13.13;;;;;;;1.79;100.00;101136.09;5059183;28;20049;-71
2022/01/15 03:56:46;;;;;;;22.33;12.15;;;;;;;1.76;100.00;101149.28;5075647;28;20466;-71
2022/01/15 03:59:17;;;;;;;20.55;11.85;;;;;;;1.78;100.00;101147.50;5075547;28;20440;-72
2022/01/15 04:01:45;;;;;;;22.77;13.05;;;;;;;1.76;100.00;101149.28;5076169;28;20049;-72
2022/01/15 04:04:14;;;;;;;21.38;12.63;;;;;;;1.75;100.00;101152.81;5075892;28;20112;-71
2022/01/15 04:06:42;;;;;;;23.15;13.38;;;;;;;1.70;100.00;101158.97;5076311;28;20076;-71
2022/01/15 04:09:11;;;;;;;21.30;11.13;;;;;;;1.71;100.00;101172.97;5057247;28;20044;-72
2022/01/15 04:11:40;;;;;;;23.02;12.73;;;;;;;1.67;100.00;101174.78;5075660;28;20040;-72
2022/01/15 04:14:08;;;;;;;24.10;13.27;;;;;;;1.71;100.00;101183.50;5075655;28;20039;-76
2022/01/15 04:16:38;;;;;;;23.35;13.98;;;;;;;1.67;100.00;101184.44;5075261;28;20045;-70
2022/01/15 04:19:07;;;;;;;22.25;13.73;;;;;;;1.67;100.00;101180.03;5074991;28;20048;-71
2022/01/15 04:21:36;;;;;;;24.92;13.60;;;;;;;1.74;100.00;101188.75;5075477;28;20055;-72
2022/01/15 04:24:05;;;;;;;19.58;10.05;;;;;;;1.68;100.00;101192.31;5075119;28;20044;-72
2022/01/15 04:26:33;;;;;;;22.60;12.05;;;;;;;1.64;100.00;101187.97;5074802;28;20044;-72
2022/01/15 04:29:04;;;;;;;20.38;12.27;;;;;;;1.61;100.00;101187.09;5075017;28;20118;-72
2022/01/15 04:31:46;;;;;;;22.63;13.10;;;;;;;1.64;100.00;101190.59;5074764;28;20040;-72
2022/01/15 04:34:18;;;;;;;23.50;13.10;;;;;;;1.65;100.00;101210.75;5074923;28;20106;-73
2022/01/15 04:36:47;;;;;;;21.52;12.15;;;;;;;1.72;100.00;101203.66;5074832;28;20052;-71
2022/01/15 04:39:16;;;;;;;20.38;10.98;;;;;;;1.71;100.00;101208.03;5074817;28;20053;-71
2022/01/15 04:41:44;;;;;;;21.67;12.52;;;;;;;1.66;100.00;101199.34;5075107;28;20048;-72
2022/01/15 04:44:13;;;;;;;19.23;11.57;;;;;;;1.64;100.00;101195.84;5074676;28;20053;-73
2022/01/15 04:46:42;;;;;;;20.58;12.00;;;;;;;1.66;100.00;101204.59;5075050;28;20036;-73
2022/01/15 04:49:11;;;;;;;20.33;11.52;;;;;;;1.75;100.00;101198.38;5074464;28;20045;-78
2022/01/15 04:51:40;;;;;;;22.88;12.73;;;;;;;1.59;100.00;101215.19;5075060;28;20049;-75
2022/01/15 04:54:09;;;;;;;21.08;12.68;;;;;;;1.65;100.00;101208.13;5074759;28;20048;-75
2022/01/15 04:56:37;;;;;;;21.10;12.45;;;;;;;1.55;100.00;101211.72;5074868;28;20043;-75
2022/01/15 04:59:06;;;;;;;20.13;12.02;;;;;;;1.54;100.00;101209.94;5074706;28;20044;-75
2022/01/15 05:01:34;;;;;;;21.48;12.77;;;;;;;1.60;100.00;101217.78;5074451;28;20388;-76
2022/01/15 05:04:02;;;;;;;20.45;11.38;;;;;;;1.62;100.00;101223.03;5074671;28;20041;-74
2022/01/15 05:06:30;;;;;;;20.33;12.05;;;;;;;1.55;100.00;101218.72;5074292;28;20032;-75
2022/01/15 05:09:05;;;;;;;21.13;11.88;;;;;;;1.55;100.00;101219.59;5074213;28;20044;-74
2022/01/15 05:11:44;;;;;;;20.23;11.10;;;;;;;1.51;100.00;101222.25;5074240;28;20428;-74
2022/01/15 05:14:13;;;;;;;20.27;11.63;;;;;;;1.52;100.00;101222.22;5074051;28;20086;-77
2022/01/15 05:16:41;;;;;;;19.50;11.85;;;;;;;1.59;100.00;101205.53;5074036;28;20455;-75
2022/01/15 05:19:09;;;;;;;18.73;9.95;;;;;;;1.47;100.00;101203.00;5074232;28;20049;-75
2022/01/15 05:21:38;;;;;;;18.70;11.15;;;;;;;1.48;100.00;101194.22;5074133;28;20044;-77
2022/01/15 05:24:08;;;;;;;20.13;11.45;;;;;;;1.58;100.00;101211.69;5074269;28;20044;-74
2022/01/15 05:26:36;;;;;;;21.55;11.68;;;;;;;1.50;100.00;101200.34;5074174;28;20040;-75
2022/01/15 05:29:05;;;;;;;20.17;11.90;;;;;;;1.48;100.00;101204.75;5073298;28;20040;-73
2022/01/15 05:31:33;;;;;;;18.30;10.93;;;;;;;1.46;100.00;101203.88;5073302;28;20044;-72
2022/01/15 05:34:02;;;;;;;19.33;10.77;;;;;;;1.50;100.00;101208.22;5073724;28;20053;-72
2022/01/15 05:36:30;;;;;;;19.35;10.93;;;;;;;1.45;100.00;101220.56;5072920;28;20379;-72
2022/01/15 05:38:58;;;;;;;21.27;10.95;;;;;;;1.41;100.00;101224.94;5072884;28;20041;-72
2022/01/15 05:41:28;;;;;;;19.95;11.25;;;;;;;1.39;100.00;101231.09;5072788;28;20494;-72
2022/01/15 05:44:00;;;;;;;18.00;8.30;;;;;;;1.45;100.00;101231.06;5073127;28;20430;-72
2022/01/15 05:46:29;;;;;;;20.38;10.57;;;;;;;1.43;100.00;101235.44;5072485;28;20040;-73
2022/01/15 05:48:58;;;;;;;19.38;10.90;;;;;;;1.41;100.00;101234.59;5072931;28;20123;-72
2022/01/15 05:51:29;;;;;;;20.90;10.85;;;;;;;1.38;100.00;101234.63;5072601;28;20519;-73
2022/01/15 05:53:58;;;;;;;20.50;11.15;;;;;;;1.33;100.00;101239.03;5073067;28;20067;-74
2022/01/15 05:56:28;;;;;;;20.60;10.55;;;;;;;1.39;100.00;101233.72;5072393;28;20098;-73
2022/01/15 05:58:58;;;;;;;18.50;10.25;;;;;;;1.35;100.00;101235.53;5072356;28;20404;-72
2022/01/15 06:01:26;;;;;;;18.05;10.30;;;;;;;1.35;100.00;101240.78;5072342;28;20463;-74
2022/01/15 06:03:54;;;;;;;17.45;9.57;;;;;;;1.28;100.00;101235.56;5072764;28;20036;-74
2022/01/15 06:06:23;;;;;;;14.43;7.68;;;;;;;1.28;100.00;101235.56;5072104;28;20454;-74
2022/01/15 06:08:51;;;;;;;19.77;11.07;;;;;;;1.22;100.00;101233.84;5072692;28;20132;-75
2022/01/15 06:11:19;;;;;;;21.95;11.00;;;;;;;1.22;100.00;101243.47;5072076;28;20393;-73
2022/01/15 06:13:49;;;;;;;18.70;9.88;;;;;;;1.20;100.00;101246.13;5072678;28;20094;-74
2022/01/15 06:16:17;;;;;;;17.80;10.38;;;;;;;1.09;100.00;101254.06;5072325;28;20052;-77
2022/01/15 06:18:46;;;;;;;19.08;10.20;;;;;;;1.19;100.00;101254.03;5072527;28;20431;-74
2022/01/15 06:21:14;;;;;;;20.85;9.80;;;;;;;1.26;100.00;101261.88;5072518;28;20090;-73
2022/01/15 06:23:42;;;;;;;19.40;10.85;;;;;;;1.20;100.00;101266.28;5072008;28;20048;-74
2022/01/15 06:26:10;;;;;;;18.15;9.57;;;;;;;1.26;100.00;101266.25;5072397;28;20051;-74
2022/01/15 06:28:39;;;;;;;18.25;9.70;;;;;;;1.25;100.00;101260.09;5072100;28;20123;-73
2022/01/15 06:31:09;;;;;;;20.02;9.95;;;;;;;1.26;100.00;101261.00;5071864;28;20438;-74
2022/01/15 06:33:37;;;;;;;20.20;9.63;;;;;;;1.25;100.00;101264.47;5033066;28;1104409;-73
2022/01/15 06:36:06;;;;;;;17.25;9.50;;;;;;;1.21;100.00;101258.38;5073215;28;20037;-73
2022/01/15 06:38:34;;;;;;;19.48;9.82;;;;;;;1.18;100.00;101254.91;5072639;28;20098;-73
2022/01/15 06:41:02;;;;;;;18.42;10.25;;;;;;;1.29;100.00;101250.44;5072239;28;20109;-72
2022/01/15 06:43:31;;;;;;;19.10;9.52;;;;;;;1.35;100.00;101258.28;5072587;28;20444;-72
2022/01/15 06:45:59;;;;;;;17.17;9.35;;;;;;;1.29;100.00;101266.22;5072990;28;20135;-71
2022/01/15 06:48:30;;;;;;;17.20;9.40;;;;;;;1.26;100.00;101271.50;5054715;28;20048;-74
2022/01/15 06:50:58;;;;;;;16.73;9.80;;;;;;;1.21;100.00;101278.53;5072668;28;20075;-71
2022/01/15 06:53:27;;;;;;;16.83;9.13;;;;;;;1.18;100.00;101279.44;5072641;28;20473;-73
2022/01/15 06:55:55;;;;;;;19.95;10.02;;;;;;;1.10;100.00;101282.09;5072741;28;20071;-72
2022/01/15 06:58:25;;;;;;;16.70;8.73;;;;;;;1.25;100.00;101285.50;5072602;28;20083;-72
2022/01/15 07:00:54;;;;;;;15.15;8.70;;;;;;;1.12;100.00;101284.72;5072786;28;20052;-72
2022/01/15 07:03:22;;;;;;;16.60;9.43;;;;;;;1.20;100.00;101276.78;5072249;28;20068;-73
2022/01/15 07:05:52;;;;;;;16.92;8.25;;;;;;;1.28;100.00;101272.38;5072910;28;20052;-73
2022/01/15 07:08:20;;;;;;;17.60;9.85;;;;;;;1.30;100.00;101275.84;5072692;28;20067;-73
2022/01/15 07:10:48;;;;;;;17.00;9.93;;;;;;;1.32;100.00;101271.44;5072525;28;20086;-72
2022/01/15 07:13:19;;;;;;;17.75;9.75;;;;;;;1.36;100.00;101273.19;5072575;28;20063;-72
2022/01/15 07:15:48;;;;;;;16.60;9.05;;;;;;;1.41;100.00;101274.03;5054905;28;20485;-74
2022/01/15 07:18:17;;;;;;;16.25;8.82;;;;;;;1.47;100.00;101275.75;5072677;28;20060;-73
2022/01/15 07:20:45;;;;;;;15.35;8.13;;;;;;;1.48;100.00;101288.88;5071932;28;20511;-73
2022/01/15 07:23:15;;;;;;;18.38;8.63;;;;;;;1.42;100.00;101286.28;5072359;28;20055;-72
2022/01/15 07:25:43;;;;;;;16.30;8.65;;;;;;;1.44;100.00;101300.28;5072315;28;20090;-71
2022/01/15 07:28:13;;;;;;;20.13;8.88;;;;;;;1.43;100.00;101296.78;5072414;28;20079;-71
2022/01/15 07:30:41;;;;;;;18.83;8.95;;;;;;;1.48;100.00;101299.41;5072009;28;20090;-69
2022/01/15 07:33:09;;;;;;;12.77;7.20;;;;;;;1.59;100.00;101301.97;5072205;28;20056;-67
2022/01/15 07:35:39;;;;;;;14.55;8.73;;;;;;;1.62;100.00;101305.44;5071652;28;20052;-67
2022/01/15 07:38:07;;;;;;;21.52;9.20;;;;;;;1.61;100.00;101305.44;5057481;28;20051;-67
2022/01/15 07:40:36;;;;;;;16.20;8.45;;;;;;;1.65;100.00;101313.31;5071848;28;20037;-71
2022/01/15 07:43:05;;;;;;;15.55;7.88;;;;;;;1.79;100.00;101304.44;5072142;28;20124;-71
2022/01/15 07:45:33;;;;;;;18.20;8.20;;;;;;;1.82;100.00;101307.91;5054458;28;20058;-71
2022/01/15 07:48:01;;;;;;;15.23;8.35;;;;;;;1.88;100.00;101309.63;5072400;28;20040;-70
2022/01/15 07:50:30;;;;;;;18.42;8.38;;;;;;;1.81;100.00;101305.31;5071983;28;20040;-71
2022/01/15 07:52:59;;;;;;;16.40;7.18;;;;;;;1.91;100.00;101320.13;5073057;28;20485;-70
2022/01/15 07:55:27;;;;;;;15.73;8.15;;;;;;;1.90;100.00;101331.53;5075725;28;20041;-70
2022/01/15 07:58:04;;;;;;;15.38;8.00;;;;;;;1.90;100.00;101326.28;5075957;28;20508;-70
2022/01/15 08:00:33;;;;;;;21.00;7.63;;;;;;;1.98;100.00;101319.22;5057664;28;20424;-69
2022/01/15 08:03:02;;;;;;;14.43;7.68;;;;;;;1.98;100.00;101321.84;5075699;28;20047;-70
2022/01/15 08:05:30;;;;;;;15.32;7.55;;;;;;;1.99;100.00;101323.56;5075693;28;20392;-70
2022/01/15 08:07:59;;;;;;;14.63;7.45;;;;;;;2.11;100.00;101322.59;5075895;28;20048;-66
2022/01/15 08:10:27;;;;;;;14.07;7.72;;;;;;;2.04;100.00;101331.47;5075050;28;20041;-74
2022/01/15 08:12:55;;;;;;;13.80;6.88;;;;;;;2.12;100.00;101324.34;5075636;28;20040;-67
2022/01/15 08:15:26;;;;;;;16.80;6.95;;;;;;;2.21;100.00;101327.78;5075192;28;20060;-67
2022/01/15 08:17:55;;;;;;;13.80;6.68;;;;;;;2.21;100.00;101322.50;5075610;28;20086;-67
2022/01/15 08:20:23;;;;;;;11.60;5.00;;;;;;;2.28;100.00;101326.84;5075405;28;20037;-67
2022/01/15 08:22:52;;;;;;;14.60;7.03;;;;;;;2.30;100.00;101334.72;5075097;28;20044;-68
2022/01/15 08:25:22;;;;;;;13.43;7.07;;;;;;;2.30;100.00;101329.44;5075450;28;20394;-68
2022/01/15 08:27:52;;;;;;;15.70;7.03;;;;;;;2.33;100.00;101333.84;5074971;28;20469;-68
2022/01/15 08:30:22;;;;;;;14.77;6.80;;;;;;;2.30;100.00;101329.44;5074858;28;20040;-68
2022/01/15 08:32:52;;;;;;;12.02;5.82;;;;;;;2.37;100.00;101335.53;5074623;28;20041;-72
2022/01/15 08:35:21;;;;;;;14.45;6.20;;;;;;;2.38;100.00;101338.16;5075259;28;20478;-67
2022/01/15 08:37:49;;;;;;;16.42;7.20;;;;;;;2.35;100.00;101339.97;5074644;28;20041;-67
2022/01/15 08:40:20;;;;;;;12.00;5.57;;;;;;;2.49;100.00;101335.41;5074932;28;20102;-66
2022/01/15 08:42:49;;;;;;;13.80;6.03;;;;;;;2.56;100.00;101337.09;5074816;28;20045;-69
2022/01/15 08:45:19;;;;;;;12.70;6.47;;;;;;;2.72;100.00;101327.28;5074620;28;20169;-69
2022/01/15 08:47:47;;;;;;;13.52;5.90;;;;;;;2.72;100.00;101322.91;5075116;28;20044;-68
2022/01/15 08:50:17;;;;;;;11.50;4.28;;;;;;;2.74;100.00;101326.38;5061685;28;20044;-68
2022/01/15 08:52:45;;;;;;;13.15;5.78;;;;;;;2.73;100.00;101337.81;5074492;28;20068;-69
2022/01/15 08:55:15;;;;;;;12.57;5.10;;;;;;;2.81;100.00;101330.69;5074691;28;20044;-70
2022/01/15 08:57:44;;;;;;;10.15;4.93;;;;;;;2.80;100.00;101328.09;5074474;28;20040;-69
2022/01/15 09:00:15;;;;;;;14.52;5.57;;;;;;;2.82;100.00;101326.31;5075373;28;20045;-71
2022/01/15 09:02:44;;;;;;;11.60;5.72;;;;;;;2.91;100.00;101322.69;5072961;28;20415;-70
2022/01/15 09:05:13;;;;;;;12.70;5.35;;;;;;;3.00;100.00;101327.84;5073271;28;20485;-70
2022/01/15 09:07:43;;;;;;;15.80;4.88;;;;;;;3.09;100.00;101322.47;5074234;28;20044;-70
2022/01/15 09:10:11;;;;;;;8.20;3.65;;;;;;;3.13;100.00;101313.63;5075003;28;20048;-70
2022/01/15 09:12:41;;;;;;;11.60;5.05;;;;;;;3.14;100.00;101321.50;5071609;28;20045;-70
2022/01/15 09:15:29;;;;;;;11.27;5.15;;;;;;;3.21;100.00;101321.44;5069986;28;20040;-71
2022/01/15 09:17:58;;;;;;;12.60;5.05;;;;;;;3.23;100.00;101315.25;5056919;28;20040;-73
2022/01/15 09:20:26;;;;;;;11.93;4.05;;;;;;;3.24;100.00;101327.53;5072352;28;20081;-71
2022/01/15 09:22:56;;;;;;;11.20;4.30;;;;;;;3.30;100.00;101327.47;5073588;28;20055;-71
2022/01/15 09:25:25;;;;;;;12.88;4.70;;;;;;;3.24;100.00;101324.91;5073926;28;20131;-70
2022/01/15 09:30:40;;;;;;;9.90;4.07;;;;;;;3.27;100.00;101305.53;5073569;28;20040;-69
2022/01/15 09:33:08;;;;;;;10.80;3.85;;;;;;;3.38;100.00;101315.06;5073693;28;20477;-70
2022/01/15 09:35:37;;;;;;;12.48;4.00;;;;;;;3.44;100.00;101320.22;5073722;28;20067;-72
2022/01/15 09:38:07;;;;;;;13.25;4.90;;;;;;;3.47;100.00;101310.50;5073813;28;20047;-70
2022/01/15 09:40:38;;;;;;;13.40;4.75;;;;;;;3.41;100.00;101312.38;5073278;28;20048;-70
2022/01/15 09:43:08;;;;;;;11.50;4.82;;;;;;;3.48;100.00;101323.72;5074115;28;20064;-70
2022/01/15 09:45:37;;;;;;;13.60;5.22;;;;;;;3.45;100.00;101321.97;5073422;28;20568;-70
2022/01/15 09:48:07;;;;;;;13.45;4.93;;;;;;;3.43;100.00;101313.22;5073285;28;20051;-71
2022/01/15 09:50:37;;;;;;;10.27;4.25;;;;;;;3.56;100.00;101318.28;5072443;28;20040;-72
2022/01/15 09:53:07;;;;;;;12.90;3.85;;;;;;;3.60;100.00;101314.75;5073750;28;20124;-72
2022/01/15 09:55:35;;;;;;;15.63;4.72;;;;;;;3.62;100.00;101319.09;5073209;28;20036;-73
2022/01/15 09:58:04;;;;;;;12.73;4.20;;;;;;;3.59;100.00;101320.91;5072989;28;20094;-71
2022/01/15 10:00:32;;;;;;;11.30;3.90;;;;;;;3.66;100.00;101309.34;5072906;28;20508;-72
2022/01/15 10:03:02;;;;;;;12.25;4.43;;;;;;;3.72;100.00;101299.59;5072378;28;20098;-71
2022/01/15 10:05:31;;;;;;;8.75;3.75;;;;;;;3.71;100.00;101291.69;5073255;28;20447;-71
2022/01/15 10:08:01;;;;;;;11.70;4.13;;;;;;;3.73;100.00;101305.72;5072083;28;20044;-72
2022/01/15 10:10:35;;;;;;;10.30;4.07;;;;;;;3.81;100.00;101314.41;5074087;28;20040;-72
2022/01/15 10:13:15;;;;;;;10.20;3.97;;;;;;;3.86;100.00;101307.31;5073756;28;20146;-70
2022/01/15 10:15:46;;;;;;;15.65;4.38;;;;;;;3.87;100.00;101303.78;5072523;28;20040;-70
2022/01/15 10:18:22;;;;;;;13.05;4.65;;;;;;;3.97;100.00;101304.50;5069032;28;20053;-73
2022/01/15 10:20:51;;;;;;;6.75;3.10;;;;;;;3.96;100.00;101300.13;5071864;28;20050;-71
2022/01/15 10:23:23;;;;;;;9.93;4.85;;;;;;;3.98;100.00;101300.94;5069190;28;20048;-69
2022/01/15 10:26:16;;;;;;;13.20;5.07;;;;;;;4.00;100.00;101294.75;5070569;28;20055;-75
2022/01/15 10:28:56;;;;;;;17.98;4.07;;;;;;;4.07;100.00;101302.56;5063819;28;20057;-70
2022/01/15 10:31:28;;;;;;;10.70;5.00;;;;;;;4.03;100.00;101294.69;5066735;28;20064;-71
2022/01/15 10:33:58;;;;;;;12.05;4.80;;;;;;;3.95;100.00;101291.28;5070107;28;20045;-71
2022/01/15 10:36:30;;;;;;;14.35;4.55;;;;;;;4.05;100.00;101286.72;5071342;28;20032;-70
2022/01/15 10:39:18;;;;;;;15.30;4.70;;;;;;;4.11;100.00;101291.06;5069202;28;20044;-76
2022/01/15 10:41:49;;;;;;;12.68;4.18;;;;;;;4.12;100.00;101284.88;5057499;28;20110;-73
2022/01/15 10:44:30;;;;;;;13.30;3.95;;;;;;;4.26;100.00;101289.03;5071837;28;20726;-72
2022/01/15 10:47:08;;;;;;;10.20;4.03;;;;;;;4.24;100.00;101284.66;5071003;28;20037;-72
2022/01/15 10:49:40;;;;;;;18.75;5.13;;;;;;;4.29;100.00;101285.44;5070834;28;20053;-72
2022/01/15 10:52:11;;;;;;;11.95;3.72;;;;;;;4.21;100.00;101271.50;5071063;28;20094;-70
2022/01/15 10:54:57;;;;;;;10.93;3.42;;;;;;;4.34;100.00;101278.28;5071252;28;20382;-74
2022/01/15 10:57:30;;;;;;;10.90;3.58;;;;;;;4.33;100.00;101271.28;5071067;28;20054;-73
2022/01/15 11:00:17;;;;;;;7.18;3.25;;;;;;;4.40;100.00;101272.91;5071192;28;20131;-76
2022/01/15 11:02:48;;;;;;;10.23;3.20;;;;;;;4.42;100.00;101260.53;5070928;28;20045;-75
2022/01/15 11:05:25;;;;;;;10.57;3.90;;;;;;;4.44;100.00;101264.03;5070903;28;20044;-74
2022/01/15 11:07:55;;;;;;;12.23;3.75;;;;;;;4.51;100.00;101259.50;5070897;28;20049;-75
2022/01/15 11:10:24;;;;;;;9.02;3.58;;;;;;;4.59;100.00;101265.50;5070862;28;20036;-73
2022/01/15 11:12:54;;;;;;;10.15;3.83;;;;;;;4.59;100.00;101263.72;5052711;28;20114;-77
2022/01/15 11:15:23;;;;;;;8.77;3.45;;;;;;;4.64;98.84;101260.16;5070755;28;20516;-73
2022/01/15 11:17:52;;;;;;;9.70;3.50;;;;;;;4.65;99.52;101267.19;5070302;28;20044;-71
2022/01/15 11:20:24;;;;;;;9.85;3.25;;;;;;;4.55;99.94;101256.78;5070021;28;20131;-73
2022/01/15 11:22:53;;;;;;;8.30;3.38;;;;;;;4.58;100.00;101254.06;5070791;28;20507;-71
2022/01/15 11:25:22;;;;;;;9.40;3.25;;;;;;;4.68;99.86;101257.41;5070798;28;20044;-74
2022/01/15 11:27:56;;;;;;;10.10;3.30;;;;;;;4.67;100.00;101252.16;5072139;28;20052;-73
2022/01/15 11:30:26;;;;;;;10.50;3.60;;;;;;;4.71;100.00;101254.69;5089914;28;20489;-70
2022/01/15 11:32:56;;;;;;;16.10;3.33;;;;;;;4.75;98.98;101253.75;5074845;28;20051;-73
2022/01/15 11:35:37;;;;;;;9.70;3.40;;;;;;;4.77;98.37;101249.28;5073970;28;20056;-73
2022/01/15 11:38:06;;;;;;;9.25;3.92;;;;;;;4.81;98.72;101250.09;5073621;28;20051;-68
2022/01/15 11:40:37;;;;;;;11.32;2.90;;;;;;;4.83;98.09;101256.22;5073382;28;20041;-71
2022/01/15 11:43:45;;;;;;;9.68;3.25;;;;;;;4.89;96.30;101246.38;5073244;28;20044;-70
2022/01/15 11:46:26;;;;;;;10.57;3.08;;;;;;;5.00;94.82;101247.94;5073434;28;20148;-72